Nearby METAR Reports

 

KOKB - Oceanside, California, USA
Distance from station: W 1mi, 2km
Updated: Tue, 29-Nov-2022 7:52pm PST
Clear
Clear
 Wind from calm
Wind: Calm
Temperature: 48°F , 9°C
Dew Point: 45°F , 7°C
Humidity: 87%
Barometer: 29.99 inHg , 1015.6 hPa
Clouds: Clear
Visibility: 9 miles , 14 km
2022/11/30 03:52 KOKB 300352Z AUTO 00000KT 9SM CLR 09/07 A2999 RMK AO2 SLP156 T00890072
KNFG - Camp Pendleton, California, USA
Distance from station: N 5mi, 8km
Updated: Tue, 29-Nov-2022 7:52pm PST
Clear
Clear
 Wind from NE
Wind: NE 3 mph , 6 km/h
Temperature: 50°F , 10°C
Dew Point: 46°F , 8°C
Humidity: 88%
Barometer: 30.01 inHg , 1016.3 hPa
Clouds: Clear
Visibility: 10 miles , 16 km
2022/11/30 03:52 KNFG 300352Z 05003KT 10SM CLR 10/08 A3001 RMK AO2 SLP160 T01000078 $
 
KCRQ - Carlsbad, California, USA
Distance from station: SSE 6mi, 10km
Updated: Tue, 29-Nov-2022 7:53pm PST
Clear
Clear
 Wind from calm
Wind: Calm
Temperature: 54°F , 12°C
Dew Point: 46°F , 8°C
Humidity: 77%
Barometer: 29.99 inHg , 1015.6 hPa
Clouds: Clear
Visibility: 10 miles , 16 km
2022/11/30 03:53 KCRQ 300353Z 00000KT 10SM CLR 12/08 A2999 RMK AO2 SLP154 T01170083
KL18 - Fallbrook, California, USA
Distance from station: NNE 10mi, 17km
Updated: Tue, 29-Nov-2022 7:55pm PST
Clear
Clear
 Wind from N
Wind: N 5 mph , 7 km/h
Temperature: 52°F , 11°C
Dew Point: 48°F , 9°C
Humidity: 88%
Barometer: 30.01 inHg , 1016.3 hPa
Clouds: Clear
Visibility: 10 miles , 16 km
2022/11/30 03:55 KL18 300355Z AUTO 01004KT 10SM CLR 11/09 A3001 RMK AO2
 
KNKX - Miramar Nas/San, California, USA
Distance from station: SSE 26mi, 43km
Updated: Tue, 29-Nov-2022 7:55pm PST
Clear
Clear
 Wind from E
Wind: E 5 mph , 7 km/h
Temperature: 46°F , 8°C
Wind Chill: 44°F , 7°C
Dew Point: 43°F , 6°C
Humidity: 87%
Barometer: 30.00 inHg , 1015.9 hPa
Clouds: Clear
Visibility: 10 miles , 16 km
2022/11/30 03:55 KNKX 300355Z 10004KT 10SM CLR 08/06 A3000 RMK AO2 SLP156 T00780061
KF70 - Murrieta/Temecul, California, USA
Distance from station: NNE 27mi, 43km
Updated: Tue, 29-Nov-2022 7:55pm PST
Clear
Clear
 Wind from E
Wind: E 3 mph , 6 km/h
Temperature: 48°F , 9°C
Dew Point: 46°F , 8°C
Humidity: 94%
Barometer: 30.01 inHg , 1016.3 hPa
Clouds: Clear
Visibility: 10 miles , 16 km
2022/11/30 03:55 KF70 300355Z AUTO 10003KT 10SM CLR 09/08 A3001 RMK AO2
 
KRNM - Ramona, California, USA
Distance from station: ESE 27mi, 43km
Updated: Tue, 29-Nov-2022 8:00pm PST
Few Clouds
Few Clouds
 Wind from calm
Wind: Calm
Temperature: 45°F , 7°C
Dew Point: 43°F , 6°C
Humidity: 93%
Barometer: 29.99 inHg , 1015.6 hPa
Clouds: Few Clouds
Visibility: 9 miles , 14 km
Cloud details: Few Clouds 1700 ft
2022/11/30 04:00 KRNM 300400Z AUTO 00000KT 9SM FEW017 07/06 A2999 RMK AO2 T00720056
KMYF - San Diego/Mntgmy, California, USA
Distance from station: SSE 30mi, 48km
Updated: Tue, 29-Nov-2022 7:53pm PST
Clear
Clear
 Wind from calm
Wind: Calm
Temperature: 54°F , 12°C
Dew Point: 46°F , 8°C
Humidity: 77%
Barometer: 30.00 inHg , 1015.9 hPa
Clouds: Clear
Visibility: 10 miles , 16 km
2022/11/30 03:53 KMYF 300353Z 00000KT 10SM CLR 12/08 A3000 RMK AO2 SLP158 T01170078
 
KSAN - San Diego, California, USA
Distance from station: SSE 34mi, 55km
Updated: Tue, 29-Nov-2022 7:51pm PST
Few Clouds
Few Clouds
 Wind from calm
Wind: Calm
Temperature: 59°F , 15°C
Dew Point: 48°F , 9°C
Humidity: 68%
Barometer: 30.02 inHg , 1016.6 hPa
Clouds: Few Clouds
Visibility: 10 miles , 16 km
Cloud details: Few Clouds 2500 ft
2022/11/30 03:51 KSAN 300351Z 00000KT 10SM FEW025 15/09 A3002 RMK AO2 SLP164 T01500089
KSEE - San Diego/Santee, California, USA
Distance from station: SE 34mi, 55km
Updated: Tue, 29-Nov-2022 7:47pm PST
Clear
Clear
 Wind from W
Wind: W 6 mph , 9 km/h
Temperature: 50°F , 10°C
Wind Chill: 48°F , 9°C
Dew Point: 45°F , 7°C
Humidity: 82%
Barometer: 30.01 inHg , 1016.3 hPa
Clouds: Clear
Visibility: 10 miles , 16 km
2022/11/30 03:47 KSEE 300347Z 27005KT 10SM SKC 10/07 A3001
 
KNZY - North Island Nas, California, USA
Distance from station: S 36mi, 58km
Updated: Tue, 29-Nov-2022 7:52pm PST
Few Clouds
Few Clouds
 Wind from calm
Wind: Calm
Temperature: 55°F , 13°C
Dew Point: 46°F , 8°C
Humidity: 72%
Barometer: 30.00 inHg , 1015.9 hPa
Clouds: Few Clouds
Visibility: 10 miles , 16 km
Cloud details: Few Clouds 3500 ft
2022/11/30 03:52 KNZY 300352Z 00000KT 10SM FEW035 13/08 A3000 RMK AO2 SLP157 T01280078
KHMT - Hemet, California, USA
Distance from station: NNE 40mi, 65km
Updated: Tue, 29-Nov-2022 7:55pm PST
Clear
Clear
 Wind from calm
Wind: Calm
Temperature: 50°F , 10°C
Dew Point: 50°F , 10°C
Humidity: 100%
Barometer: 30.01 inHg , 1016.3 hPa
Clouds: Clear
Visibility: 10 miles , 16 km
2022/11/30 03:55 KHMT 300355Z AUTO 00000KT 10SM CLR 10/10 A3001 RMK AO2 T0098////
 
KSNA - Costa Mesa, California, USA
Distance from station: NW 44mi, 71km
Updated: Tue, 29-Nov-2022 7:53pm PST
Clear
Clear
 Wind from ESE
Wind: ESE 3 mph , 6 km/h
Temperature: 59°F , 15°C
Dew Point: 48°F , 9°C
Humidity: 68%
Barometer: 29.99 inHg , 1015.6 hPa
Clouds: Clear
Visibility: 10 miles , 16 km
2022/11/30 03:53 KSNA 300353Z 12003KT 10SM CLR 15/09 A2999 RMK AO2 SLP156 T01500094
KRIV - Riverside/March, California, USA
Distance from station: N 45mi, 73km
Updated: Tue, 29-Nov-2022 7:55pm PST
Clear
Clear
 Wind from calm
Wind: Calm
Temperature: 50°F , 10°C
Dew Point: 45°F , 7°C
Humidity: 82%
Barometer: 30.00 inHg , 1015.9 hPa
Clouds: Clear
Visibility: 10 miles , 16 km
2022/11/30 03:55 KRIV 300355Z AUTO 00000KT 10SM CLR 10/07 A3000 RMK AO2 SLP158 T01020071
 
KNRS - Imperial Beach, California, USA
Distance from station: SSE 46mi, 75km
Updated: Tue, 29-Nov-2022 7:53pm PST
Clear
Clear
 Wind from calm
Wind: Calm
Temperature: 46°F , 8°C
Dew Point: 43°F , 6°C
Humidity: 87%
Barometer: 30.01 inHg , 1016.3 hPa
Clouds: Clear
Visibility: 10 miles , 16 km
2022/11/30 03:53 KNRS 300353Z 00000KT 10SM CLR 08/06 A3001 RMK AO2 SLP162 T00830061 $
KSDM - San Diego/Brown, California, USA
Distance from station: SSE 48mi, 76km
Updated: Tue, 29-Nov-2022 7:53pm PST
Clear
Clear
 Wind from E
Wind: E 3 mph , 6 km/h
Temperature: 50°F , 10°C
Dew Point: 45°F , 7°C
Humidity: 82%
Barometer: 30.00 inHg , 1015.9 hPa
Clouds: Clear
Visibility: 10 miles , 16 km
2022/11/30 03:53 KSDM 300353Z 08003KT 10SM CLR 10/07 A3000 RMK AO2 SLP158 T01000067
 
KAJO - Corona Muni, California, USA
Distance from station: NNW 50mi, 80km
Updated: Tue, 29-Nov-2022 7:56pm PST
Clear
Clear
 Wind from calm
Wind: Calm
Temperature: 52°F , 11°C
Dew Point: 46°F , 8°C
Humidity: 82%
Barometer: 30.01 inHg , 1016.3 hPa
Clouds: Clear
Visibility: 10 miles , 16 km
2022/11/30 03:56 KAJO 300356Z AUTO 00000KT 10SM CLR 11/08 A3001 RMK AO2 SLP160 T01060083